Terminal Aerodrome Forecast
Issued by NWS

Home | Current Version | Previous Version | Text Only | Print | Product List | Glossary On
Versions: 1 2 3 4 5 6 7 8 9 10 11 12 13
290
FTUS43 KTOP 061728 CCA
TAFMHK
TAF COR
KMHK 061728Z 0618/0718 20011G20KT P6SM SKC
     FM070100 19009KT P6SM SCT200
     FM070800 19009KT P6SM FEW200 WS015/23045KT
     FM071400 21010KT P6SM FEW200=

USA.gov is the U.S. government's official web portal to all federal, state and local government web resources and services.